Terminal Aerodrome Forecast
Issued by NWS Milwaukee/Sullivan, WI

Home | Current Version | Previous Version | Text Only | Print | Product List | Glossary On
Versions: 1 2 3 4 5 6 7 8 9 10 11 12 13 14 15 16 17 18 19 20 21 22 23 24 25 26
000
FTUS43 KMKX 220701 AAA
TAFMKE
TAF AMD
KMKE 220701Z 2207/2312 23010KT P6SM SCT020 BKN150
     FM220800 26010G15KT P6SM BKN023 BKN150
     FM221100 25008KT P6SM VCSH OVC030
     FM221300 28010KT P6SM BKN030
     FM221600 29011G18KT P6SM SCT040
     FM230000 31010KT P6SM FEW250=

USA.gov is the U.S. government's official web portal to all federal, state and local government web resources and services.